sensor_id;sensor_type;location;lat;lon;timestamp;temperature;humidity
4964;DHT22;2497;47.410;9.740;2023-05-10T00:01:51;13.10;99.90
4964;DHT22;2497;47.410;9.740;2023-05-10T00:04:18;13.10;99.90
4964;DHT22;2497;47.410;9.740;2023-05-10T00:06:46;13.10;99.90
4964;DHT22;2497;47.410;9.740;2023-05-10T00:09:13;13.10;99.90
4964;DHT22;2497;47.410;9.740;2023-05-10T00:11:40;13.10;99.90
4964;DHT22;2497;47.410;9.740;2023-05-10T00:14:09;13.10;99.90
4964;DHT22;2497;47.410;9.740;2023-05-10T00:16:36;13.10;99.90
4964;DHT22;2497;47.410;9.740;2023-05-10T00:19:03;13.10;99.90
4964;DHT22;2497;47.410;9.740;2023-05-10T00:21:30;13.10;99.90
4964;DHT22;2497;47.410;9.740;2023-05-10T00:23:57;13.10;99.90
4964;DHT22;2497;47.410;9.740;2023-05-10T00:26:25;13.10;99.90
4964;DHT22;2497;47.410;9.740;2023-05-10T00:28:52;13.10;99.90
4964;DHT22;2497;47.410;9.740;2023-05-10T00:31:20;13.00;99.90
4964;DHT22;2497;47.410;9.740;2023-05-10T00:33:47;12.90;99.90
4964;DHT22;2497;47.410;9.740;2023-05-10T00:36:14;12.90;99.90
4964;DHT22;2497;47.410;9.740;2023-05-10T00:38:41;12.90;99.90
4964;DHT22;2497;47.410;9.740;2023-05-10T00:41:09;13.00;99.90
4964;DHT22;2497;47.410;9.740;2023-05-10T00:43:36;13.10;99.90
4964;DHT22;2497;47.410;9.740;2023-05-10T00:46:03;13.00;99.90
4964;DHT22;2497;47.410;9.740;2023-05-10T00:48:32;13.00;99.90
4964;DHT22;2497;47.410;9.740;2023-05-10T00:50:59;13.00;99.90
4964;DHT22;2497;47.410;9.740;2023-05-10T00:53:27;13.00;99.90
4964;DHT22;2497;47.410;9.740;2023-05-10T00:55:55;13.10;99.90
4964;DHT22;2497;47.410;9.740;2023-05-10T00:58:22;13.20;99.90
4964;DHT22;2497;47.410;9.740;2023-05-10T01:00:54;13.20;99.90
4964;DHT22;2497;47.410;9.740;2023-05-10T01:03:23;13.20;99.90
4964;DHT22;2497;47.410;9.740;2023-05-10T01:05:52;13.30;99.90
4964;DHT22;2497;47.410;9.740;2023-05-10T01:08:20;13.20;99.90
4964;DHT22;2497;47.410;9.740;2023-05-10T01:10:47;13.20;99.90
4964;DHT22;2497;47.410;9.740;2023-05-10T01:13:23;13.20;99.90
4964;DHT22;2497;47.410;9.740;2023-05-10T01:15:53;13.10;99.90
4964;DHT22;2497;47.410;9.740;2023-05-10T01:18:21;13.00;99.90
4964;DHT22;2497;47.410;9.740;2023-05-10T01:20:59;13.00;99.90
4964;DHT22;2497;47.410;9.740;2023-05-10T01:23:37;13.10;99.90
4964;DHT22;2497;47.410;9.740;2023-05-10T01:26:24;13.00;99.90
4964;DHT22;2497;47.410;9.740;2023-05-10T01:29:22;13.00;99.90
4964;DHT22;2497;47.410;9.740;2023-05-10T01:32:17;13.00;99.90
4964;DHT22;2497;47.410;9.740;2023-05-10T01:34:54;12.90;99.90
4964;DHT22;2497;47.410;9.740;2023-05-10T01:37:29;12.80;99.90
4964;DHT22;2497;47.410;9.740;2023-05-10T01:40:02;12.70;99.90
4964;DHT22;2497;47.410;9.740;2023-05-10T01:42:35;12.60;99.90
4964;DHT22;2497;47.410;9.740;2023-05-10T01:45:10;12.50;99.90
4964;DHT22;2497;47.410;9.740;2023-05-10T01:47:43;12.40;99.90
4964;DHT22;2497;47.410;9.740;2023-05-10T01:50:15;12.40;99.90
4964;DHT22;2497;47.410;9.740;2023-05-10T01:52:49;12.30;99.90
4964;DHT22;2497;47.410;9.740;2023-05-10T01:55:20;12.40;99.90
4964;DHT22;2497;47.410;9.740;2023-05-10T01:57:54;12.40;99.90
4964;DHT22;2497;47.410;9.740;2023-05-10T02:00:23;12.30;99.90
4964;DHT22;2497;47.410;9.740;2023-05-10T02:02:52;12.30;99.90
4964;DHT22;2497;47.410;9.740;2023-05-10T02:05:20;12.20;99.90
4964;DHT22;2497;47.410;9.740;2023-05-10T02:07:49;12.20;99.90
4964;DHT22;2497;47.410;9.740;2023-05-10T02:10:18;12.10;99.90
4964;DHT22;2497;47.410;9.740;2023-05-10T02:12:47;12.20;99.90
4964;DHT22;2497;47.410;9.740;2023-05-10T02:15:19;12.20;99.90
4964;DHT22;2497;47.410;9.740;2023-05-10T02:17:47;12.20;99.90
4964;DHT22;2497;47.410;9.740;2023-05-10T02:20:16;12.20;99.90
4964;DHT22;2497;47.410;9.740;2023-05-10T02:22:45;12.20;99.90
4964;DHT22;2497;47.410;9.740;2023-05-10T02:25:14;12.20;99.90
4964;DHT22;2497;47.410;9.740;2023-05-10T02:27:42;12.20;99.90
4964;DHT22;2497;47.410;9.740;2023-05-10T02:30:10;12.30;99.90
4964;DHT22;2497;47.410;9.740;2023-05-10T02:32:39;12.30;99.90
4964;DHT22;2497;47.410;9.740;2023-05-10T02:35:08;12.20;99.90
4964;DHT22;2497;47.410;9.740;2023-05-10T02:37:37;12.20;99.90
4964;DHT22;2497;47.410;9.740;2023-05-10T02:40:05;12.30;99.90
4964;DHT22;2497;47.410;9.740;2023-05-10T02:42:36;12.30;99.90
4964;DHT22;2497;47.410;9.740;2023-05-10T02:45:07;12.30;99.90
4964;DHT22;2497;47.410;9.740;2023-05-10T02:47:34;12.30;99.90
4964;DHT22;2497;47.410;9.740;2023-05-10T02:50:02;12.30;99.90
4964;DHT22;2497;47.410;9.740;2023-05-10T02:52:35;12.30;99.90
4964;DHT22;2497;47.410;9.740;2023-05-10T02:55:06;12.40;99.90
4964;DHT22;2497;47.410;9.740;2023-05-10T02:57:41;12.40;99.90
4964;DHT22;2497;47.410;9.740;2023-05-10T03:00:09;12.30;99.90
4964;DHT22;2497;47.410;9.740;2023-05-10T03:02:36;12.30;99.90
4964;DHT22;2497;47.410;9.740;2023-05-10T03:05:04;12.30;99.90
4964;DHT22;2497;47.410;9.740;2023-05-10T03:07:34;12.20;99.90
4964;DHT22;2497;47.410;9.740;2023-05-10T03:10:01;12.20;99.90
4964;DHT22;2497;47.410;9.740;2023-05-10T03:12:44;12.20;99.90
4964;DHT22;2497;47.410;9.740;2023-05-10T03:15:19;12.10;99.90
4964;DHT22;2497;47.410;9.740;2023-05-10T03:17:55;12.20;99.90
4964;DHT22;2497;47.410;9.740;2023-05-10T03:20:25;12.10;99.90
4964;DHT22;2497;47.410;9.740;2023-05-10T03:22:59;12.10;99.90
4964;DHT22;2497;47.410;9.740;2023-05-10T03:25:27;12.10;99.90
4964;DHT22;2497;47.410;9.740;2023-05-10T03:27:58;12.10;99.90
4964;DHT22;2497;47.410;9.740;2023-05-10T03:30:28;12.10;99.90
4964;DHT22;2497;47.410;9.740;2023-05-10T03:32:58;12.10;99.90
4964;DHT22;2497;47.410;9.740;2023-05-10T03:35:30;12.00;99.90
4964;DHT22;2497;47.410;9.740;2023-05-10T03:37:57;12.00;99.90
4964;DHT22;2497;47.410;9.740;2023-05-10T03:40:25;12.00;99.90
4964;DHT22;2497;47.410;9.740;2023-05-10T03:42:54;12.00;99.90
4964;DHT22;2497;47.410;9.740;2023-05-10T03:45:22;12.10;99.90
4964;DHT22;2497;47.410;9.740;2023-05-10T03:47:50;12.10;99.90
4964;DHT22;2497;47.410;9.740;2023-05-10T03:50:17;12.10;99.90
4964;DHT22;2497;47.410;9.740;2023-05-10T03:52:45;12.10;99.90
4964;DHT22;2497;47.410;9.740;2023-05-10T03:55:12;12.10;99.90
4964;DHT22;2497;47.410;9.740;2023-05-10T03:57:39;12.10;99.90
4964;DHT22;2497;47.410;9.740;2023-05-10T04:00:07;12.10;99.90
4964;DHT22;2497;47.410;9.740;2023-05-10T04:02:36;12.10;99.90
4964;DHT22;2497;47.410;9.740;2023-05-10T04:05:04;12.10;99.90
4964;DHT22;2497;47.410;9.740;2023-05-10T04:07:31;12.10;99.90
4964;DHT22;2497;47.410;9.740;2023-05-10T04:10:01;12.10;99.90
4964;DHT22;2497;47.410;9.740;2023-05-10T04:12:28;12.10;99.90
4964;DHT22;2497;47.410;9.740;2023-05-10T04:14:55;12.00;99.90
4964;DHT22;2497;47.410;9.740;2023-05-10T04:17:23;12.00;99.90
4964;DHT22;2497;47.410;9.740;2023-05-10T04:19:58;12.10;99.90
4964;DHT22;2497;47.410;9.740;2023-05-10T04:22:26;12.10;99.90
4964;DHT22;2497;47.410;9.740;2023-05-10T04:24:53;12.10;99.90
4964;DHT22;2497;47.410;9.740;2023-05-10T04:27:20;12.00;99.90
4964;DHT22;2497;47.410;9.740;2023-05-10T04:29:47;12.10;99.90
4964;DHT22;2497;47.410;9.740;2023-05-10T04:32:15;12.10;99.90
4964;DHT22;2497;47.410;9.740;2023-05-10T04:34:43;12.10;99.90
4964;DHT22;2497;47.410;9.740;2023-05-10T04:37:11;12.00;99.90
4964;DHT22;2497;47.410;9.740;2023-05-10T04:39:38;12.10;99.90
4964;DHT22;2497;47.410;9.740;2023-05-10T04:42:05;12.00;99.90
4964;DHT22;2497;47.410;9.740;2023-05-10T04:44:36;12.10;99.90
4964;DHT22;2497;47.410;9.740;2023-05-10T04:47:03;12.00;99.90
4964;DHT22;2497;47.410;9.740;2023-05-10T04:49:31;12.00;99.90
4964;DHT22;2497;47.410;9.740;2023-05-10T04:51:58;12.00;99.90
4964;DHT22;2497;47.410;9.740;2023-05-10T04:54:26;12.00;99.90
4964;DHT22;2497;47.410;9.740;2023-05-10T04:56:53;12.10;99.90
4964;DHT22;2497;47.410;9.740;2023-05-10T04:59:21;12.10;99.90
4964;DHT22;2497;47.410;9.740;2023-05-10T05:01:51;12.00;99.90
4964;DHT22;2497;47.410;9.740;2023-05-10T05:04:18;12.10;99.90
4964;DHT22;2497;47.410;9.740;2023-05-10T05:06:57;12.10;99.90
4964;DHT22;2497;47.410;9.740;2023-05-10T05:09:25;12.10;99.90
4964;DHT22;2497;47.410;9.740;2023-05-10T05:11:52;12.10;99.90
4964;DHT22;2497;47.410;9.740;2023-05-10T05:14:19;12.10;99.90
4964;DHT22;2497;47.410;9.740;2023-05-10T05:16:47;12.30;99.90
4964;DHT22;2497;47.410;9.740;2023-05-10T05:19:17;12.30;99.90
4964;DHT22;2497;47.410;9.740;2023-05-10T05:21:44;12.30;99.90
4964;DHT22;2497;47.410;9.740;2023-05-10T05:24:13;12.20;99.90
4964;DHT22;2497;47.410;9.740;2023-05-10T05:26:48;12.30;99.90
4964;DHT22;2497;47.410;9.740;2023-05-10T05:29:17;12.30;99.90
4964;DHT22;2497;47.410;9.740;2023-05-10T05:31:46;12.30;99.90
4964;DHT22;2497;47.410;9.740;2023-05-10T05:34:19;12.30;99.90
4964;DHT22;2497;47.410;9.740;2023-05-10T05:36:47;12.30;99.90
4964;DHT22;2497;47.410;9.740;2023-05-10T05:39:20;12.30;99.90
4964;DHT22;2497;47.410;9.740;2023-05-10T05:41:56;12.40;99.90
4964;DHT22;2497;47.410;9.740;2023-05-10T05:44:25;12.40;99.90
4964;DHT22;2497;47.410;9.740;2023-05-10T05:46:54;12.40;99.90
4964;DHT22;2497;47.410;9.740;2023-05-10T05:49:23;12.40;99.90
4964;DHT22;2497;47.410;9.740;2023-05-10T05:51:53;12.50;99.90
4964;DHT22;2497;47.410;9.740;2023-05-10T05:54:20;12.60;99.90
4964;DHT22;2497;47.410;9.740;2023-05-10T05:56:58;12.60;99.90
4964;DHT22;2497;47.410;9.740;2023-05-10T05:59:26;12.60;99.90
4964;DHT22;2497;47.410;9.740;2023-05-10T06:01:59;12.60;99.90
4964;DHT22;2497;47.410;9.740;2023-05-10T06:04:28;12.60;99.90
4964;DHT22;2497;47.410;9.740;2023-05-10T06:06:55;12.60;99.90
4964;DHT22;2497;47.410;9.740;2023-05-10T06:09:25;12.70;99.90
4964;DHT22;2497;47.410;9.740;2023-05-10T06:11:56;12.60;99.90
4964;DHT22;2497;47.410;9.740;2023-05-10T06:14:23;12.70;99.90
4964;DHT22;2497;47.410;9.740;2023-05-10T06:16:50;12.80;99.90
4964;DHT22;2497;47.410;9.740;2023-05-10T06:19:17;12.80;99.90
4964;DHT22;2497;47.410;9.740;2023-05-10T06:21:44;12.80;99.90
4964;DHT22;2497;47.410;9.740;2023-05-10T06:24:15;12.80;99.90
4964;DHT22;2497;47.410;9.740;2023-05-10T06:26:44;12.90;99.90
4964;DHT22;2497;47.410;9.740;2023-05-10T06:29:14;12.90;99.90
4964;DHT22;2497;47.410;9.740;2023-05-10T06:31:47;12.90;99.90
4964;DHT22;2497;47.410;9.740;2023-05-10T06:34:14;12.80;99.90
4964;DHT22;2497;47.410;9.740;2023-05-10T06:36:42;12.70;99.90
4964;DHT22;2497;47.410;9.740;2023-05-10T06:39:18;12.60;99.90
4964;DHT22;2497;47.410;9.740;2023-05-10T06:41:47;12.60;99.90
4964;DHT22;2497;47.410;9.740;2023-05-10T06:44:15;12.60;99.90
4964;DHT22;2497;47.410;9.740;2023-05-10T06:46:42;12.70;99.90
4964;DHT22;2497;47.410;9.740;2023-05-10T06:49:14;12.70;99.90
4964;DHT22;2497;47.410;9.740;2023-05-10T06:51:41;12.70;99.90
4964;DHT22;2497;47.410;9.740;2023-05-10T06:54:08;12.80;99.90
4964;DHT22;2497;47.410;9.740;2023-05-10T06:56:35;12.80;99.90
4964;DHT22;2497;47.410;9.740;2023-05-10T06:59:02;12.80;99.90
4964;DHT22;2497;47.410;9.740;2023-05-10T07:01:37;12.80;99.90
4964;DHT22;2497;47.410;9.740;2023-05-10T07:04:04;12.90;99.90
4964;DHT22;2497;47.410;9.740;2023-05-10T07:06:40;12.90;99.90
4964;DHT22;2497;47.410;9.740;2023-05-10T07:09:17;12.90;99.90
4964;DHT22;2497;47.410;9.740;2023-05-10T07:11:45;12.90;99.90
4964;DHT22;2497;47.410;9.740;2023-05-10T07:14:12;13.00;99.90
4964;DHT22;2497;47.410;9.740;2023-05-10T07:16:40;12.90;99.90
4964;DHT22;2497;47.410;9.740;2023-05-10T07:19:08;12.90;99.90
4964;DHT22;2497;47.410;9.740;2023-05-10T07:21:35;12.90;99.90
4964;DHT22;2497;47.410;9.740;2023-05-10T07:24:04;12.90;99.90
4964;DHT22;2497;47.410;9.740;2023-05-10T07:26:31;12.90;99.90
4964;DHT22;2497;47.410;9.740;2023-05-10T07:29:02;12.80;99.90
4964;DHT22;2497;47.410;9.740;2023-05-10T07:31:32;12.80;99.90
4964;DHT22;2497;47.410;9.740;2023-05-10T07:34:04;12.80;99.90
4964;DHT22;2497;47.410;9.740;2023-05-10T07:36:31;12.80;99.90
4964;DHT22;2497;47.410;9.740;2023-05-10T07:38:59;12.70;99.90
4964;DHT22;2497;47.410;9.740;2023-05-10T07:41:28;12.60;99.90
4964;DHT22;2497;47.410;9.740;2023-05-10T07:43:58;12.50;99.90
4964;DHT22;2497;47.410;9.740;2023-05-10T07:46:25;12.40;99.90
4964;DHT22;2497;47.410;9.740;2023-05-10T07:48:52;12.30;99.90
4964;DHT22;2497;47.410;9.740;2023-05-10T07:51:27;12.30;99.90
4964;DHT22;2497;47.410;9.740;2023-05-10T07:53:54;12.40;99.90
4964;DHT22;2497;47.410;9.740;2023-05-10T07:56:24;12.40;99.90
4964;DHT22;2497;47.410;9.740;2023-05-10T07:58:57;12.30;99.90
4964;DHT22;2497;47.410;9.740;2023-05-10T08:01:25;12.20;99.90
4964;DHT22;2497;47.410;9.740;2023-05-10T08:03:53;12.30;99.90
4964;DHT22;2497;47.410;9.740;2023-05-10T08:06:21;12.20;99.90
4964;DHT22;2497;47.410;9.740;2023-05-10T08:08:49;12.20;99.90
4964;DHT22;2497;47.410;9.740;2023-05-10T08:11:17;12.20;99.90
4964;DHT22;2497;47.410;9.740;2023-05-10T08:13:44;12.20;99.90
4964;DHT22;2497;47.410;9.740;2023-05-10T08:16:12;12.30;99.90
4964;DHT22;2497;47.410;9.740;2023-05-10T08:18:45;12.30;99.90
4964;DHT22;2497;47.410;9.740;2023-05-10T08:21:14;12.20;99.90
4964;DHT22;2497;47.410;9.740;2023-05-10T08:23:43;12.40;99.90
4964;DHT22;2497;47.410;9.740;2023-05-10T08:26:10;12.50;99.90
4964;DHT22;2497;47.410;9.740;2023-05-10T08:28:45;12.50;99.90
4964;DHT22;2497;47.410;9.740;2023-05-10T08:31:18;12.60;99.90
4964;DHT22;2497;47.410;9.740;2023-05-10T08:33:45;12.70;99.90
4964;DHT22;2497;47.410;9.740;2023-05-10T08:36:14;12.50;99.90
4964;DHT22;2497;47.410;9.740;2023-05-10T08:38:46;12.50;99.90
4964;DHT22;2497;47.410;9.740;2023-05-10T08:41:18;12.40;99.90
4964;DHT22;2497;47.410;9.740;2023-05-10T08:43:46;12.50;99.90
4964;DHT22;2497;47.410;9.740;2023-05-10T08:46:17;12.50;99.90
4964;DHT22;2497;47.410;9.740;2023-05-10T08:48:45;12.50;99.90
4964;DHT22;2497;47.410;9.740;2023-05-10T08:51:14;12.50;99.90
4964;DHT22;2497;47.410;9.740;2023-05-10T08:53:43;12.50;99.90
4964;DHT22;2497;47.410;9.740;2023-05-10T08:56:12;12.60;99.90
4964;DHT22;2497;47.410;9.740;2023-05-10T08:58:41;12.70;99.90
4964;DHT22;2497;47.410;9.740;2023-05-10T09:01:13;12.70;99.90
4964;DHT22;2497;47.410;9.740;2023-05-10T09:03:44;12.80;99.90
4964;DHT22;2497;47.410;9.740;2023-05-10T09:06:14;12.90;99.90
4964;DHT22;2497;47.410;9.740;2023-05-10T09:08:49;12.80;99.90
4964;DHT22;2497;47.410;9.740;2023-05-10T09:11:18;12.70;99.90
4964;DHT22;2497;47.410;9.740;2023-05-10T09:13:48;12.70;99.90
4964;DHT22;2497;47.410;9.740;2023-05-10T09:16:16;12.60;99.90
4964;DHT22;2497;47.410;9.740;2023-05-10T09:18:45;12.60;99.90
4964;DHT22;2497;47.410;9.740;2023-05-10T09:21:13;12.60;99.90
4964;DHT22;2497;47.410;9.740;2023-05-10T09:23:46;12.60;99.90
4964;DHT22;2497;47.410;9.740;2023-05-10T09:26:17;12.70;99.90
4964;DHT22;2497;47.410;9.740;2023-05-10T09:28:58;12.70;99.90
4964;DHT22;2497;47.410;9.740;2023-05-10T09:31:45;12.70;99.90
4964;DHT22;2497;47.410;9.740;2023-05-10T09:34:18;12.80;99.90
4964;DHT22;2497;47.410;9.740;2023-05-10T09:36:53;12.80;99.90
4964;DHT22;2497;47.410;9.740;2023-05-10T09:39:21;12.90;99.90
4964;DHT22;2497;47.410;9.740;2023-05-10T09:41:57;12.90;99.90
4964;DHT22;2497;47.410;9.740;2023-05-10T09:44:27;13.00;99.90
4964;DHT22;2497;47.410;9.740;2023-05-10T09:46:57;13.20;99.90
4964;DHT22;2497;47.410;9.740;2023-05-10T09:49:24;13.10;99.90
4964;DHT22;2497;47.410;9.740;2023-05-10T09:52:06;13.20;99.90
4964;DHT22;2497;47.410;9.740;2023-05-10T09:54:34;13.20;99.90
4964;DHT22;2497;47.410;9.740;2023-05-10T09:57:18;13.00;99.90
4964;DHT22;2497;47.410;9.740;2023-05-10T09:59:47;13.00;99.90
4964;DHT22;2497;47.410;9.740;2023-05-10T10:02:15;13.00;99.90
4964;DHT22;2497;47.410;9.740;2023-05-10T10:04:42;13.00;99.90
4964;DHT22;2497;47.410;9.740;2023-05-10T10:07:11;12.90;99.90
4964;DHT22;2497;47.410;9.740;2023-05-10T10:09:40;12.80;99.90
4964;DHT22;2497;47.410;9.740;2023-05-10T10:12:17;12.80;99.90
4964;DHT22;2497;47.410;9.740;2023-05-10T10:14:46;12.70;99.90
4964;DHT22;2497;47.410;9.740;2023-05-10T10:17:15;12.70;99.90
4964;DHT22;2497;47.410;9.740;2023-05-10T10:19:42;12.80;99.90
4964;DHT22;2497;47.410;9.740;2023-05-10T10:22:09;12.80;99.90
4964;DHT22;2497;47.410;9.740;2023-05-10T10:24:38;12.70;99.90
4964;DHT22;2497;47.410;9.740;2023-05-10T10:27:21;12.70;99.90
4964;DHT22;2497;47.410;9.740;2023-05-10T10:30:02;12.70;99.90
4964;DHT22;2497;47.410;9.740;2023-05-10T10:32:59;12.70;99.90
4964;DHT22;2497;47.410;9.740;2023-05-10T10:35:29;12.70;99.90
4964;DHT22;2497;47.410;9.740;2023-05-10T10:37:58;12.70;99.90
4964;DHT22;2497;47.410;9.740;2023-05-10T10:40:26;12.70;99.90
4964;DHT22;2497;47.410;9.740;2023-05-10T10:42:58;12.80;99.90
4964;DHT22;2497;47.410;9.740;2023-05-10T10:45:58;12.90;99.90
4964;DHT22;2497;47.410;9.740;2023-05-10T10:48:38;12.90;99.90
4964;DHT22;2497;47.410;9.740;2023-05-10T10:51:13;12.80;99.90
4964;DHT22;2497;47.410;9.740;2023-05-10T10:53:48;12.80;99.90
4964;DHT22;2497;47.410;9.740;2023-05-10T10:56:22;12.80;99.90
4964;DHT22;2497;47.410;9.740;2023-05-10T10:58:51;12.70;99.90
4964;DHT22;2497;47.410;9.740;2023-05-10T11:01:32;12.80;99.90
4964;DHT22;2497;47.410;9.740;2023-05-10T11:04:19;12.80;99.90
4964;DHT22;2497;47.410;9.740;2023-05-10T11:06:47;12.90;99.90
4964;DHT22;2497;47.410;9.740;2023-05-10T11:09:14;12.90;99.90
4964;DHT22;2497;47.410;9.740;2023-05-10T11:11:54;12.90;99.90
4964;DHT22;2497;47.410;9.740;2023-05-10T11:14:23;12.90;99.90
4964;DHT22;2497;47.410;9.740;2023-05-10T11:16:50;12.90;99.90
4964;DHT22;2497;47.410;9.740;2023-05-10T11:19:19;12.90;99.90
4964;DHT22;2497;47.410;9.740;2023-05-10T11:21:51;12.90;99.90
4964;DHT22;2497;47.410;9.740;2023-05-10T11:24:22;13.00;99.90
4964;DHT22;2497;47.410;9.740;2023-05-10T11:26:56;13.10;99.90
4964;DHT22;2497;47.410;9.740;2023-05-10T11:29:25;13.10;99.90
4964;DHT22;2497;47.410;9.740;2023-05-10T11:31:59;13.10;99.90
4964;DHT22;2497;47.410;9.740;2023-05-10T11:34:28;13.10;99.90
4964;DHT22;2497;47.410;9.740;2023-05-10T11:36:56;13.20;99.90
4964;DHT22;2497;47.410;9.740;2023-05-10T11:39:26;13.40;99.90
4964;DHT22;2497;47.410;9.740;2023-05-10T11:41:54;13.40;99.90
4964;DHT22;2497;47.410;9.740;2023-05-10T11:44:21;13.50;99.90
4964;DHT22;2497;47.410;9.740;2023-05-10T11:46:50;13.50;99.90
4964;DHT22;2497;47.410;9.740;2023-05-10T11:49:19;13.50;99.90
4964;DHT22;2497;47.410;9.740;2023-05-10T11:51:49;13.60;99.90
4964;DHT22;2497;47.410;9.740;2023-05-10T11:54:16;13.60;99.90
4964;DHT22;2497;47.410;9.740;2023-05-10T11:56:48;13.70;99.90
4964;DHT22;2497;47.410;9.740;2023-05-10T11:59:18;13.80;99.90
4964;DHT22;2497;47.410;9.740;2023-05-10T12:01:45;13.80;99.90
4964;DHT22;2497;47.410;9.740;2023-05-10T12:04:22;13.90;99.90
4964;DHT22;2497;47.410;9.740;2023-05-10T12:06:58;14.00;99.90
4964;DHT22;2497;47.410;9.740;2023-05-10T12:09:25;14.10;99.90
4964;DHT22;2497;47.410;9.740;2023-05-10T12:11:57;14.20;99.90
4964;DHT22;2497;47.410;9.740;2023-05-10T12:14:35;14.20;99.90
4964;DHT22;2497;47.410;9.740;2023-05-10T12:17:11;14.20;99.90
4964;DHT22;2497;47.410;9.740;2023-05-10T12:19:49;14.20;99.90
4964;DHT22;2497;47.410;9.740;2023-05-10T12:22:20;14.30;99.90
4964;DHT22;2497;47.410;9.740;2023-05-10T12:24:48;14.20;99.90
4964;DHT22;2497;47.410;9.740;2023-05-10T12:27:18;14.20;99.90
4964;DHT22;2497;47.410;9.740;2023-05-10T12:29:48;14.20;99.90
4964;DHT22;2497;47.410;9.740;2023-05-10T12:32:21;14.10;99.90
4964;DHT22;2497;47.410;9.740;2023-05-10T12:34:58;14.00;99.90
4964;DHT22;2497;47.410;9.740;2023-05-10T12:37:29;14.10;99.90
4964;DHT22;2497;47.410;9.740;2023-05-10T12:39:58;14.20;99.90
4964;DHT22;2497;47.410;9.740;2023-05-10T12:42:30;14.20;99.90
4964;DHT22;2497;47.410;9.740;2023-05-10T12:44:58;14.10;99.90
4964;DHT22;2497;47.410;9.740;2023-05-10T12:47:27;13.80;99.90
4964;DHT22;2497;47.410;9.740;2023-05-10T12:49:59;13.60;99.90
4964;DHT22;2497;47.410;9.740;2023-05-10T12:52:27;13.50;99.90
4964;DHT22;2497;47.410;9.740;2023-05-10T12:54:54;13.40;99.90
4964;DHT22;2497;47.410;9.740;2023-05-10T12:57:28;13.20;99.90
4964;DHT22;2497;47.410;9.740;2023-05-10T12:59:58;13.10;99.90
4964;DHT22;2497;47.410;9.740;2023-05-10T13:02:28;12.90;99.90
4964;DHT22;2497;47.410;9.740;2023-05-10T13:05:00;12.70;99.90
4964;DHT22;2497;47.410;9.740;2023-05-10T13:07:27;12.70;99.90
4964;DHT22;2497;47.410;9.740;2023-05-10T13:10:12;12.70;99.90
4964;DHT22;2497;47.410;9.740;2023-05-10T13:12:49;12.80;99.90
4964;DHT22;2497;47.410;9.740;2023-05-10T13:15:16;12.80;99.90
4964;DHT22;2497;47.410;9.740;2023-05-10T13:17:52;12.80;99.90
4964;DHT22;2497;47.410;9.740;2023-05-10T13:20:25;12.90;99.90
4964;DHT22;2497;47.410;9.740;2023-05-10T13:22:58;12.90;99.90
4964;DHT22;2497;47.410;9.740;2023-05-10T13:25:39;13.10;99.90
4964;DHT22;2497;47.410;9.740;2023-05-10T13:28:08;13.20;99.90
4964;DHT22;2497;47.410;9.740;2023-05-10T13:30:50;13.30;99.90
4964;DHT22;2497;47.410;9.740;2023-05-10T13:33:28;13.30;99.90
4964;DHT22;2497;47.410;9.740;2023-05-10T13:35:58;13.30;99.90
4964;DHT22;2497;47.410;9.740;2023-05-10T13:38:28;13.30;99.90
4964;DHT22;2497;47.410;9.740;2023-05-10T13:40:59;13.10;99.90
4964;DHT22;2497;47.410;9.740;2023-05-10T13:43:26;12.90;99.90
4964;DHT22;2497;47.410;9.740;2023-05-10T13:45:55;12.90;99.90
4964;DHT22;2497;47.410;9.740;2023-05-10T13:48:27;12.90;99.90
4964;DHT22;2497;47.410;9.740;2023-05-10T13:50:56;12.90;99.90
4964;DHT22;2497;47.410;9.740;2023-05-10T13:53:25;12.80;99.90
4964;DHT22;2497;47.410;9.740;2023-05-10T13:55:52;12.70;99.90
4964;DHT22;2497;47.410;9.740;2023-05-10T13:58:22;12.80;99.90
4964;DHT22;2497;47.410;9.740;2023-05-10T14:01:01;12.80;99.90
4964;DHT22;2497;47.410;9.740;2023-05-10T14:03:30;12.70;99.90
4964;DHT22;2497;47.410;9.740;2023-05-10T14:05:59;12.60;99.90
4964;DHT22;2497;47.410;9.740;2023-05-10T14:08:28;12.50;99.90
4964;DHT22;2497;47.410;9.740;2023-05-10T14:10:56;12.50;99.90
4964;DHT22;2497;47.410;9.740;2023-05-10T14:13:30;12.60;99.90
4964;DHT22;2497;47.410;9.740;2023-05-10T14:16:00;12.70;99.90
4964;DHT22;2497;47.410;9.740;2023-05-10T14:18:27;12.70;99.90
4964;DHT22;2497;47.410;9.740;2023-05-10T14:21:11;12.70;99.90
4964;DHT22;2497;47.410;9.740;2023-05-10T14:23:40;12.70;99.90
4964;DHT22;2497;47.410;9.740;2023-05-10T14:26:09;12.70;99.90
4964;DHT22;2497;47.410;9.740;2023-05-10T14:28:39;12.70;99.90
4964;DHT22;2497;47.410;9.740;2023-05-10T14:31:09;12.70;99.90
4964;DHT22;2497;47.410;9.740;2023-05-10T14:33:38;12.80;99.90
4964;DHT22;2497;47.410;9.740;2023-05-10T14:36:10;12.80;99.90
4964;DHT22;2497;47.410;9.740;2023-05-10T14:38:41;12.70;99.90
4964;DHT22;2497;47.410;9.740;2023-05-10T14:41:10;12.70;99.90
4964;DHT22;2497;47.410;9.740;2023-05-10T14:43:41;12.80;99.90
4964;DHT22;2497;47.410;9.740;2023-05-10T14:46:19;12.70;99.90
4964;DHT22;2497;47.410;9.740;2023-05-10T14:48:52;12.70;99.90
4964;DHT22;2497;47.410;9.740;2023-05-10T14:51:30;12.60;99.90
4964;DHT22;2497;47.410;9.740;2023-05-10T14:53:57;12.70;99.90
4964;DHT22;2497;47.410;9.740;2023-05-10T14:56:24;12.80;99.90
4964;DHT22;2497;47.410;9.740;2023-05-10T14:58:53;12.80;99.90
4964;DHT22;2497;47.410;9.740;2023-05-10T15:01:21;12.80;99.90
4964;DHT22;2497;47.410;9.740;2023-05-10T15:03:48;12.80;99.90
4964;DHT22;2497;47.410;9.740;2023-05-10T15:06:23;12.80;99.90
4964;DHT22;2497;47.410;9.740;2023-05-10T15:08:52;12.80;99.90
4964;DHT22;2497;47.410;9.740;2023-05-10T15:11:19;12.80;99.90
4964;DHT22;2497;47.410;9.740;2023-05-10T15:13:47;12.80;99.90
4964;DHT22;2497;47.410;9.740;2023-05-10T15:16:14;12.80;99.90
4964;DHT22;2497;47.410;9.740;2023-05-10T15:18:41;12.80;99.90
4964;DHT22;2497;47.410;9.740;2023-05-10T15:21:09;12.80;99.90
4964;DHT22;2497;47.410;9.740;2023-05-10T15:23:36;12.80;99.90
4964;DHT22;2497;47.410;9.740;2023-05-10T15:26:10;12.70;99.90
4964;DHT22;2497;47.410;9.740;2023-05-10T15:28:37;12.70;99.90
4964;DHT22;2497;47.410;9.740;2023-05-10T15:31:07;12.80;99.90
4964;DHT22;2497;47.410;9.740;2023-05-10T15:33:37;12.80;99.90
4964;DHT22;2497;47.410;9.740;2023-05-10T15:36:07;12.90;99.90
4964;DHT22;2497;47.410;9.740;2023-05-10T15:38:34;12.90;99.90
4964;DHT22;2497;47.410;9.740;2023-05-10T15:41:02;12.90;99.90
4964;DHT22;2497;47.410;9.740;2023-05-10T15:43:36;12.80;99.90
4964;DHT22;2497;47.410;9.740;2023-05-10T15:46:04;12.80;99.90
4964;DHT22;2497;47.410;9.740;2023-05-10T15:48:31;12.80;99.90
4964;DHT22;2497;47.410;9.740;2023-05-10T15:51:00;12.80;99.90
4964;DHT22;2497;47.410;9.740;2023-05-10T15:53:27;12.80;99.90
4964;DHT22;2497;47.410;9.740;2023-05-10T15:55:56;12.80;99.90
4964;DHT22;2497;47.410;9.740;2023-05-10T15:58:23;12.80;99.90
4964;DHT22;2497;47.410;9.740;2023-05-10T16:00:52;12.80;99.90
4964;DHT22;2497;47.410;9.740;2023-05-10T16:03:27;12.80;99.90
4964;DHT22;2497;47.410;9.740;2023-05-10T16:05:55;12.80;99.90
4964;DHT22;2497;47.410;9.740;2023-05-10T16:08:22;12.90;99.90
4964;DHT22;2497;47.410;9.740;2023-05-10T16:10:51;12.90;99.90
4964;DHT22;2497;47.410;9.740;2023-05-10T16:13:18;12.90;99.90
4964;DHT22;2497;47.410;9.740;2023-05-10T16:15:45;12.90;99.90
4964;DHT22;2497;47.410;9.740;2023-05-10T16:18:14;12.80;99.90
4964;DHT22;2497;47.410;9.740;2023-05-10T16:20:42;12.70;99.90
4964;DHT22;2497;47.410;9.740;2023-05-10T16:23:10;12.60;99.90